Historyczne dane pomiarowe

Dodano dane terminowe – wersja testowa.

Dane z okresu 1951-2019

Wersja bazy: 1.34 [2019-03-16, lista zmian], aktualizacja planowana na 2019-04-15

Dane meteo z obszaru Polski uzyskane na podstawie danych udostępnionych przez Instytut Meteorologii i Gospodarki Wodnej – Państwowy Instytut Badawczy.

 

Wybierz Datę:    

       

TemperaturaWilgotnośćWiatrCiśnienieOpadyŚniegCzas trwania zjawisk
 Stacja t tx tn tng RH VA  wxwx mslp ppp RRR   cm mm wxwxwxwxwxwxwx
1961-08-14 13.1 17.6 9.0--- 5.7 2.0---- 1.6------------
1961-08-13 12.8 17.1 9.5--- 4.0 2.7---- 0.0------------
1961-08-12 14.7 20.7 12.4--- 6.0 3.3---- 1.6------------
1961-08-11 14.2 16.9 12.9--- 7.0 2.0---- 0.0------------
1961-08-10 15.3 21.5 11.5--- 5.7 3.3---- 28.3------------
1961-08-09 15.3 22.3 12.0--- 3.0 2.0---- 0.0------------
1961-08-08 14.5 20.0 10.2--- 4.7 1.3---- 0.0------------
1961-08-07 13.7 16.7 11.3--- 6.0 1.3---- 6.7------------
1961-08-06 17.3 25.5 13.0--- 4.3 1.7---- 1.9------------
1961-08-05 14.8 19.4 10.6--- 5.0 3.3---- 0.8------------
1961-08-04 12.1 14.9 9.3--- 7.3 3.7---- 3.7------------
1961-08-03 12.8 17.7 10.4--- 5.3 2.7---- 8.1------------
1961-08-02 14.8 20.1 11.4--- 6.7 2.0---- 1.7------------
1961-08-01 13.1 15.3 12.0--- 7.7 4.3---- 3.1------------
1961-07-31 13.3 15.3 13.1--- 7.0 3.3---- 21.3------------
1961-07-30 14.6 19.1 10.5--- 6.0 2.0---- 0.0------------
1961-07-29 13.0 16.3 10.6--- 6.0 3.7---- 0.7------------
1961-07-28 12.1 13.5 11.4--- 7.0 2.0---- 1.9------------
1961-07-27 14.8 18.2 13.1--- 7.7 5.7---- 0.7------------
1961-07-26 16.3 19.8 11.8--- 8.0 5.0---- 0.8------------
1961-07-25 13.2 15.9 10.8--- 7.3 3.7---- 2.3------------
1961-07-24 13.0 16.9 11.4--- 5.7 5.0---- 0.2------------
1961-07-23 13.7 16.9 12.1--- 6.3 3.7---- 0.9------------
1961-07-22 14.3 18.0 13.0--- 7.3 3.7---- 1.3------------
1961-07-21 13.6 17.3 11.0--- 8.0 1.0---- 8.3------------
1961-07-20 14.2 18.6 10.1--- 6.0 3.7---- 3.6------------
1961-07-19 14.5 19.3 11.5--- 6.3 3.3---- 1.1------------
1961-07-18 12.6 15.3 10.9--- 7.3 0.3---- 2.6------------
1961-07-17 15.5 20.6 12.3--- 6.0 1.0---- 12.2------------
1961-07-16 13.7 16.3 9.7--- 7.0 1.0---- 8.1------------
1961-07-15 12.5 19.1 10.5--- 3.0 1.3---- 6.4------------
1961-07-14 13.4 18.1 11.8--- 8.0 5.7---- 1.1------------
1961-07-13 19.8 26.6 11.4--- 5.3 3.0---- 34.1------------
1961-07-12 16.6 22.4 12.6--- 3.0 2.7---- 0.0------------
1961-07-11 14.3 18.6 9.1--- 5.0 4.3---- 2.1------------
1961-07-10 11.7 15.1 9.6--- 6.3 5.0---- 1.6------------
1961-07-09 12.5 16.6 9.7--- 7.0 6.3---- 8.4------------
1961-07-08 14.0 18.3 8.8--- 6.7 3.0---- 2.6------------
1961-07-07 11.3 14.8 8.6--- 5.7 5.0---- 0.4------------
1961-07-06 10.0 13.3 6.6--- 6.0 3.3---- 3.6------------
1961-07-05 11.3 15.0 9.7--- 4.7 7.0---- 0.3------------
1961-07-04 15.1 18.9 11.3--- 7.0 6.3---- 0.0------------
1961-07-03 21.7 31.4 15.9--- 4.0 5.0---- 0.0------------
1961-07-02 19.8 28.3 9.8--- 0.0 2.0---- 0.0------------
1961-07-01 17.2 26.2 7.2--- 0.3 1.0---- 0.0------------
1961-06-30 15.4 23.3 11.7--- 0.0 3.3---- 0.0------------
1961-06-29 14.6 18.5 12.7--- 5.0 5.0---- 0.2------------
1961-06-28 14.3 21.1 11.5--- 4.0 9.3---- 0.0------------
1961-06-27 22.4 27.6 17.1--- 4.7 5.7---- 0.0------------
1961-06-26 18.6 25.3 13.5--- 1.0 3.3---- 0.0------------
1961-06-25 20.0 25.6 14.4--- 3.0 5.7---- 0.0------------
1961-06-24 16.8 20.6 12.5--- 4.3 7.0---- 0.0------------
1961-06-23 16.3 18.4 10.6--- 3.7 3.3---- 0.0------------
1961-06-22 14.0 18.9 7.7--- 2.7 3.3---- 0.0------------
1961-06-21 12.8 17.6 8.5--- 4.0 3.7---- 0.0------------
1961-06-20 11.8 16.9 9.5--- 4.7 4.0---- 0.0------------
1961-06-19 13.6 17.5 11.3--- 4.0 8.3---- 0.0------------
1961-06-18 18.9 25.0 15.6--- 5.3 5.0---- 1.2------------
1961-06-17 16.6 22.3 11.5--- 6.3 4.3---- 0.0------------
1961-06-16 12.4 13.1 10.8--- 6.3 4.3---- 26.6------------
383.0 ms

 

Źródłem pochodzenia danych jest Instytut Meteorologii i Gospodarki Wodnej – Państwowy Instytut Badawczy. Dane Instytutu Meteorologii i Gospodarki Wodnej – Państwowego Instytutu Badawczego zostały przetworzone.

Dane źródłowe można odnaleźć na stronie https://dane.imgw.pl